PWSweather.com
Personal Weather Stations
Station Observations
AF1HS
North Haven, CT 06473

North Haven, CT 06473

Lat: 41.3733, Lon: -72.8413

Elevation: 85.3

Station Type: Oregon Scientific WMR968

http://www.af1hs.com/wx/index.php

Latest ConditionsUpdated 11:11:45 AM EDT Friday, Sep 22, 2017
Currently Today's Max Today's Min Today's Average
Temperature 75.2°F24.0°C 75.2°F24.0°C 62.1°F16.7°C 67.3°F19.6°C
Dew Point 56.4°F13.6°C 56.4°F13.6°C 50.5°F10.3°C 52.5°F11.4°C
Winds Calm Calm Calm NNWCalm NNW - Calm Calm
Wind Gusts -- -- - -
Humidity 52% 67% 52% 59%
Pressure 29.82 in1009.8 mb 29.86 in1011.2 mb 29.82 in1009.8 mb -
Hour Temp Dew Point Humidity Winds Wind Gusts Pressure Precip Precip Rate Daily Precip Total
11:11 AM 75.2°F24.0°C 56.4°F13.6°C 52% Calm Calm -- 29.82 in1009.8 mb - 0.00 in0.0 mm 0.00 in0.0 mm
11:01 AM 74.5°F23.6°C 55.7°F13.2°C 52% Calm Calm -- 29.82 in1009.8 mb - 0.00 in0.0 mm 0.00 in0.0 mm
10:31 AM 72.9°F22.7°C 54.7°F12.6°C 53% Calm Calm -- 29.82 in1009.8 mb - 0.00 in0.0 mm 0.00 in0.0 mm
10:21 AM 72.3°F22.4°C 54.2°F12.3°C 53% Calm Calm -- 29.82 in1009.8 mb - 0.00 in0.0 mm 0.00 in0.0 mm
10:11 AM 71.8°F22.1°C 54.3°F12.4°C 54% Calm Calm -- 29.82 in1009.8 mb - 0.00 in0.0 mm 0.00 in0.0 mm
10:01 AM 71.3°F21.8°C 54.3°F12.4°C 55% Calm Calm -- 29.82 in1009.8 mb - 0.00 in0.0 mm 0.00 in0.0 mm
09:51 AM 70.1°F21.2°C 53.7°F12.1°C 56% Calm Calm -- 29.82 in1009.8 mb - 0.00 in0.0 mm 0.00 in0.0 mm
09:41 AM 69.7°F20.9°C 53.3°F11.8°C 56% Calm Calm -- 29.82 in1009.8 mb - 0.00 in0.0 mm 0.00 in0.0 mm
09:31 AM 69.4°F20.8°C 53.5°F11.9°C 57% Calm Calm -- 29.82 in1009.8 mb - 0.00 in0.0 mm 0.00 in0.0 mm
06:21 AM 62.1°F16.7°C 51.0°F10.6°C 67% Calm Calm -- 29.82 in1009.8 mb - 0.00 in0.0 mm 0.00 in0.0 mm
06:11 AM 62.1°F16.7°C 51.0°F10.6°C 67% Calm Calm -- 29.82 in1009.8 mb - 0.00 in0.0 mm 0.00 in0.0 mm
03:02 AM 64.2°F17.9°C 50.5°F10.3°C 61% Calm Calm -- 29.82 in1009.8 mb - 0.00 in0.0 mm 0.00 in0.0 mm
02:51 AM 64.3°F17.9°C 50.6°F10.3°C 61% Calm Calm -- 29.82 in1009.8 mb - 0.00 in0.0 mm 0.00 in0.0 mm
02:41 AM 64.4°F18.0°C 50.7°F10.4°C 61% Calm Calm -- 29.82 in1009.8 mb - 0.00 in0.0 mm 0.00 in0.0 mm
02:31 AM 64.3°F17.9°C 50.6°F10.3°C 61% Calm Calm -- 29.82 in1009.8 mb - 0.00 in0.0 mm 0.00 in0.0 mm
02:21 AM 64.3°F17.9°C 51.0°F10.6°C 62% Calm Calm -- 29.82 in1009.8 mb - 0.00 in0.0 mm 0.00 in0.0 mm
02:11 AM 64.3°F17.9°C 51.0°F10.6°C 62% Calm Calm -- 29.83 in1010.2 mb - 0.00 in0.0 mm 0.00 in0.0 mm
02:01 AM 64.5°F18.1°C 50.7°F10.4°C 61% Calm Calm -- 29.85 in1010.8 mb - 0.00 in0.0 mm 0.00 in0.0 mm
01:51 AM 64.7°F18.2°C 51.0°F10.6°C 61% Calm Calm -- 29.86 in1011.2 mb - 0.00 in0.0 mm 0.00 in0.0 mm
01:41 AM 64.8°F18.2°C 51.0°F10.6°C 61% Calm Calm -- 29.86 in1011.2 mb - 0.00 in0.0 mm 0.00 in0.0 mm
12:21 AM 65.3°F18.5°C 52.4°F11.3°C 63% Calm Calm -- 29.86 in1011.2 mb - 0.00 in0.0 mm 0.00 in0.0 mm
12:10 AM 65.3°F18.5°C 52.4°F11.3°C 63% Calm Calm -- 29.86 in1011.2 mb - 0.00 in0.0 mm 0.00 in0.0 mm
12:01 AM 65.5°F18.6°C 52.5°F11.4°C 63% Calm Calm -- 29.86 in1011.2 mb - 0.00 in0.0 mm 0.00 in0.0 mm